createdAt,value
2018-12-12T00:01:47.189Z,-1.63
2018-12-12T00:04:17.494Z,-1.61
2018-12-12T00:06:47.360Z,-1.78
2018-12-12T00:09:17.248Z,-1.91
2018-12-12T00:11:47.054Z,-2.03
2018-12-12T00:14:17.005Z,-1.99
2018-12-12T00:16:46.858Z,-2.06
2018-12-12T00:19:16.835Z,-2.09
2018-12-12T00:21:46.846Z,-2.14
2018-12-12T00:24:16.689Z,-1.94
2018-12-12T00:26:46.680Z,-1.80
2018-12-12T00:29:16.558Z,-1.71
2018-12-12T00:31:46.399Z,-1.64
2018-12-12T00:34:16.213Z,-1.34
2018-12-12T00:36:46.050Z,-1.37
2018-12-12T00:39:15.976Z,-1.35
2018-12-12T00:41:45.791Z,-1.35
2018-12-12T00:44:15.577Z,-1.36
2018-12-12T00:46:45.936Z,-1.16
2018-12-12T00:49:16.233Z,-1.15
2018-12-12T00:52:20.846Z,-1.09
2018-12-12T00:54:51.063Z,-1.06
2018-12-12T00:57:22.296Z,-1.30
2018-12-12T00:59:52.187Z,-1.25
2018-12-12T01:02:22.164Z,-1.19
2018-12-12T01:04:51.956Z,-1.24
2018-12-12T01:07:21.767Z,-1.22
2018-12-12T01:09:51.524Z,-1.09
2018-12-12T01:12:21.346Z,-1.16
2018-12-12T01:14:51.325Z,-1.22
2018-12-12T01:17:21.768Z,-1.10
2018-12-12T01:19:51.717Z,-1.16
2018-12-12T01:22:21.557Z,-1.17
2018-12-12T01:24:51.387Z,-1.20
2018-12-12T01:34:33.735Z,-1.35
2018-12-12T01:37:03.928Z,-1.40
2018-12-12T01:39:33.821Z,-1.35
2018-12-12T01:42:03.641Z,-1.30
2018-12-12T01:44:33.416Z,-1.21
2018-12-12T01:47:03.335Z,-1.48
2018-12-12T01:49:33.119Z,-1.74
2018-12-12T01:52:02.931Z,-1.96
2018-12-12T01:54:32.808Z,-1.84
2018-12-12T01:57:02.741Z,-2.03
2018-12-12T01:59:32.579Z,-1.96
2018-12-12T02:02:02.404Z,-1.78
2018-12-12T02:04:32.193Z,-1.86
2018-12-12T02:07:01.975Z,-1.72
2018-12-12T02:09:31.984Z,-1.63
2018-12-12T02:12:01.814Z,-1.57
2018-12-12T02:14:31.596Z,-1.57
2018-12-12T02:17:01.538Z,-1.49
2018-12-12T02:19:31.340Z,-1.46
2018-12-12T02:22:01.694Z,-1.55
2018-12-12T02:24:31.482Z,-1.54
2018-12-12T02:27:01.300Z,-1.55
2018-12-12T02:29:31.161Z,-1.44
2018-12-12T02:32:00.995Z,-1.54
2018-12-12T02:35:19.342Z,-1.66
2018-12-12T02:37:49.196Z,-1.49
2018-12-12T02:40:19.311Z,-1.59
2018-12-12T02:42:49.144Z,-1.52
2018-12-12T02:45:18.983Z,-1.61
2018-12-12T02:51:24.901Z,-1.55
2018-12-12T02:53:54.802Z,-1.67
2018-12-12T02:56:24.815Z,-1.76
2018-12-12T02:58:54.592Z,-1.70
2018-12-12T03:01:24.406Z,-1.73
2018-12-12T03:03:54.355Z,-1.83
2018-12-12T03:06:24.163Z,-1.62
2018-12-12T03:08:54.067Z,-1.48
2018-12-12T03:11:25.151Z,-1.67
2018-12-12T03:13:55.827Z,-1.74
2018-12-12T03:16:25.795Z,-1.63
2018-12-12T03:18:55.922Z,-1.83
2018-12-12T03:21:25.750Z,-1.72
2018-12-12T03:23:55.578Z,-1.89
2018-12-12T03:26:25.364Z,-2.11
2018-12-12T03:28:55.420Z,-2.05
2018-12-12T03:31:25.202Z,-2.05
2018-12-12T03:33:54.962Z,-1.97
2018-12-12T03:36:24.758Z,-1.88
2018-12-12T03:38:54.512Z,-1.94
2018-12-12T03:41:24.371Z,-2.09
2018-12-12T03:43:54.186Z,-2.01
2018-12-12T03:46:24.002Z,-2.06
2018-12-12T03:48:54.154Z,-1.92
2018-12-12T03:51:24.035Z,-2.18
2018-12-12T03:53:54.176Z,-2.32
2018-12-12T03:56:24.004Z,-2.17
2018-12-12T03:58:53.725Z,-2.30
2018-12-12T04:01:23.575Z,-2.54
2018-12-12T04:03:53.437Z,-2.73
2018-12-12T04:06:23.390Z,-2.83
2018-12-12T04:08:53.893Z,-2.80
2018-12-12T04:11:23.692Z,-2.85
2018-12-12T04:13:53.495Z,-2.68
2018-12-12T04:16:23.276Z,-2.51
2018-12-12T04:18:53.764Z,-2.42
2018-12-12T04:21:23.950Z,-2.36
2018-12-12T04:23:54.532Z,-2.49
2018-12-12T04:26:24.331Z,-2.44
2018-12-12T04:28:54.173Z,-2.39
2018-12-12T04:31:23.982Z,-2.50
2018-12-12T04:33:53.803Z,-2.36
2018-12-12T04:36:23.599Z,-2.46
2018-12-12T04:38:53.398Z,-2.51
2018-12-12T04:42:17.856Z,-2.55
2018-12-12T04:44:47.730Z,-2.62
2018-12-12T04:47:17.580Z,-2.77
2018-12-12T04:49:47.398Z,-2.71
2018-12-12T04:52:17.280Z,-2.68
2018-12-12T04:58:23.212Z,-3.00
2018-12-12T05:00:53.069Z,-3.04
2018-12-12T05:03:22.928Z,-3.13
2018-12-12T05:05:53.145Z,-3.19
2018-12-12T05:08:23.054Z,-3.22
2018-12-12T05:18:05.169Z,-2.72
2018-12-12T05:20:34.992Z,-2.66
2018-12-12T05:23:04.837Z,-2.69
2018-12-12T05:25:35.336Z,-2.55
2018-12-12T05:28:05.554Z,-2.65
2018-12-12T05:34:11.324Z,-2.47
2018-12-12T05:36:41.371Z,-2.28
2018-12-12T05:39:11.979Z,-2.23
2018-12-12T05:41:41.916Z,-2.19
2018-12-12T05:44:11.725Z,-2.09
2018-12-12T05:50:17.522Z,-1.72
2018-12-12T05:52:47.304Z,-1.89
2018-12-12T05:55:17.188Z,-1.91
2018-12-12T05:57:46.968Z,-1.82
2018-12-12T06:00:16.754Z,-1.99
2018-12-12T06:02:46.513Z,-1.76
2018-12-12T06:05:16.294Z,-1.65
2018-12-12T06:07:46.129Z,-1.72
2018-12-12T06:10:15.960Z,-1.58
2018-12-12T06:12:45.981Z,-1.76
2018-12-12T06:15:15.891Z,-1.83
2018-12-12T06:17:45.746Z,-1.75
2018-12-12T06:20:15.941Z,-1.80
2018-12-12T06:22:46.133Z,-2.10
2018-12-12T06:25:16.185Z,-2.09
2018-12-12T06:27:46.238Z,-2.04
2018-12-12T06:30:16.130Z,-2.16
2018-12-12T06:32:46.009Z,-2.38
2018-12-12T06:35:15.869Z,-2.52
2018-12-12T06:37:46.695Z,-2.73
2018-12-12T06:40:18.110Z,-3.10
2018-12-12T06:42:47.951Z,-3.06
2018-12-12T06:45:17.849Z,-3.08
2018-12-12T06:47:47.790Z,-3.28
2018-12-12T06:50:17.698Z,-3.45
2018-12-12T06:52:47.509Z,-3.43
2018-12-12T06:55:18.135Z,-3.42
2018-12-12T06:57:48.005Z,-3.41
2018-12-12T07:00:17.874Z,-3.49
2018-12-12T07:06:24.500Z,-3.65
2018-12-12T07:08:54.323Z,-3.73
2018-12-12T07:11:24.198Z,-3.70
2018-12-12T07:13:54.041Z,-3.75
2018-12-12T07:16:23.789Z,-3.76
2018-12-12T07:18:54.307Z,-3.82
2018-12-12T07:21:24.441Z,-3.68
2018-12-12T07:23:54.376Z,-3.58
2018-12-12T07:26:24.589Z,-3.60
2018-12-12T07:28:54.445Z,-3.54
2018-12-12T07:31:24.449Z,-3.49
2018-12-12T07:34:00.677Z,-3.34
2018-12-12T07:36:27.553Z,-3.20
2018-12-12T07:38:57.367Z,-3.16
2018-12-12T07:41:27.551Z,-3.07
2018-12-12T07:43:57.501Z,-3.00
2018-12-12T07:46:27.876Z,-2.94
2018-12-12T07:48:58.054Z,-2.86
2018-12-12T07:51:27.934Z,-2.73
2018-12-12T07:53:57.701Z,-2.59
2018-12-12T08:00:03.905Z,-2.60
2018-12-12T08:02:33.807Z,-2.55
2018-12-12T08:05:04.813Z,-2.53
2018-12-12T08:07:34.641Z,-2.46
2018-12-12T08:10:05.162Z,-2.42
2018-12-12T08:12:35.242Z,-2.36
2018-12-12T08:15:06.201Z,-2.41
2018-12-12T08:17:36.094Z,-2.33
2018-12-12T08:20:07.471Z,-2.32
2018-12-12T08:22:37.346Z,-2.32
2018-12-12T08:25:07.819Z,-2.22
2018-12-12T08:27:39.281Z,-2.24
2018-12-12T08:30:10.403Z,-2.09
2018-12-12T08:32:40.275Z,-2.11
2018-12-12T08:35:10.354Z,-2.04
2018-12-12T08:38:19.947Z,-1.94
2018-12-12T08:40:49.804Z,-1.86
2018-12-12T08:43:19.720Z,-1.75
2018-12-12T08:45:49.565Z,-1.72
2018-12-12T08:48:19.478Z,-1.71
2018-12-12T08:50:50.194Z,-1.60
2018-12-12T08:53:20.010Z,-1.57
2018-12-12T08:55:50.141Z,-1.57
2018-12-12T08:58:19.979Z,-1.40
2018-12-12T09:00:49.815Z,-1.40
2018-12-12T09:03:19.629Z,-1.26
2018-12-12T09:05:49.862Z,-1.20
2018-12-12T09:08:19.668Z,-1.03
2018-12-12T09:10:50.305Z,-1.09
2018-12-12T09:13:20.261Z,-1.13
2018-12-12T09:15:50.170Z,-1.14
2018-12-12T09:18:20.017Z,-1.10
2018-12-12T09:20:49.827Z,-1.21
2018-12-12T09:23:20.013Z,-1.19
2018-12-12T09:25:49.886Z,-1.23
2018-12-12T09:28:20.548Z,-1.24
2018-12-12T09:30:50.365Z,-1.12
2018-12-12T09:33:24.538Z,-1.21
2018-12-12T09:35:52.061Z,-1.08
2018-12-12T09:38:22.456Z,-1.06
2018-12-12T09:40:52.716Z,-1.13
2018-12-12T09:43:22.729Z,-1.05
2018-12-12T09:45:53.086Z,-1.03
2018-12-12T09:48:23.070Z,-1.06
2018-12-12T09:50:52.884Z,-1.14
2018-12-12T09:53:22.848Z,-1.16
2018-12-12T09:59:28.736Z,-1.17
2018-12-12T10:01:59.289Z,-1.11
2018-12-12T10:04:29.090Z,-1.14
2018-12-12T10:06:58.935Z,-1.19
2018-12-12T10:09:28.823Z,-1.19
2018-12-12T10:11:59.055Z,-1.20
2018-12-12T10:14:29.162Z,-1.16
2018-12-12T10:16:58.998Z,-1.17
2018-12-12T10:19:28.838Z,-1.16
2018-12-12T10:21:59.070Z,-1.15
2018-12-12T10:24:29.400Z,-1.03
2018-12-12T10:26:59.266Z,-1.00
2018-12-12T10:29:29.226Z,-0.96
2018-12-12T10:31:59.024Z,-0.75
2018-12-12T10:34:28.899Z,-0.54
2018-12-12T10:36:58.856Z,-0.41
2018-12-12T10:39:28.722Z,-0.44
2018-12-12T10:41:58.662Z,-0.47
2018-12-12T10:44:29.041Z,-0.51
2018-12-12T10:46:59.992Z,-0.45
2018-12-12T10:49:30.776Z,-0.35
2018-12-12T10:52:00.626Z,-0.05
2018-12-12T10:54:30.824Z,0.08
2018-12-12T10:57:01.472Z,0.34
2018-12-12T10:59:31.579Z,0.57
2018-12-12T11:02:06.629Z,0.76
2018-12-12T11:04:36.687Z,1.30
2018-12-12T11:07:06.939Z,1.61
2018-12-12T11:09:36.849Z,1.55
2018-12-12T11:12:06.908Z,1.16
2018-12-12T11:14:37.507Z,0.78
2018-12-12T11:17:07.347Z,0.79
2018-12-12T11:19:37.156Z,0.52
2018-12-12T11:22:07.057Z,0.58
2018-12-12T11:24:36.852Z,0.45
2018-12-12T11:27:06.648Z,0.36
2018-12-12T11:29:36.488Z,0.44
2018-12-12T11:32:06.261Z,0.50
2018-12-12T11:34:36.703Z,0.48
2018-12-12T11:37:06.839Z,0.55
2018-12-12T11:39:36.669Z,0.72
2018-12-12T11:42:06.520Z,0.89
2018-12-12T11:44:36.398Z,0.99
2018-12-12T11:47:06.302Z,1.08
2018-12-12T11:49:36.086Z,0.97
2018-12-12T11:52:06.759Z,1.11
2018-12-12T11:54:37.036Z,1.14
2018-12-12T11:57:08.724Z,1.22
2018-12-12T11:59:39.125Z,1.30
2018-12-12T12:02:08.929Z,1.44
2018-12-12T12:04:38.709Z,1.41
2018-12-12T12:07:08.865Z,1.64
2018-12-12T12:09:38.711Z,1.51
2018-12-12T12:12:08.543Z,1.69
2018-12-12T12:14:38.425Z,1.66
2018-12-12T12:17:08.283Z,1.67
2018-12-12T12:19:38.200Z,1.75
2018-12-12T12:22:08.279Z,1.81
2018-12-12T12:24:38.131Z,1.84
2018-12-12T12:27:07.989Z,1.94
2018-12-12T12:29:37.842Z,1.91
2018-12-12T12:32:08.641Z,1.86
2018-12-12T12:34:38.484Z,1.88
2018-12-12T12:37:09.029Z,1.91
2018-12-12T12:39:38.848Z,1.95
2018-12-12T12:42:08.640Z,1.99
2018-12-12T12:44:38.718Z,2.00
2018-12-12T12:47:08.542Z,2.03
2018-12-12T12:49:39.263Z,2.04
2018-12-12T12:52:09.137Z,2.07
2018-12-12T12:54:38.994Z,2.10
2018-12-12T12:57:08.867Z,2.01
2018-12-12T12:59:38.717Z,2.00
2018-12-12T13:02:08.649Z,1.99
2018-12-12T13:04:38.473Z,1.97
2018-12-12T13:07:09.385Z,1.95
2018-12-12T13:09:39.320Z,1.98
2018-12-12T13:12:09.291Z,1.98
2018-12-12T13:14:39.587Z,1.96
2018-12-12T13:17:09.764Z,1.95
2018-12-12T13:19:39.575Z,2.01
2018-12-12T13:22:09.400Z,1.99
2018-12-12T13:24:39.196Z,2.02
2018-12-12T13:27:09.440Z,2.00
2018-12-12T13:29:39.960Z,2.05
2018-12-12T13:32:09.990Z,2.08
2018-12-12T13:34:40.697Z,2.06
2018-12-12T13:37:10.482Z,2.07
2018-12-12T13:39:40.283Z,2.11
2018-12-12T13:42:10.035Z,2.13
2018-12-12T13:44:40.039Z,2.06
2018-12-12T13:47:17.022Z,2.08
2018-12-12T13:49:42.174Z,1.95
2018-12-12T13:52:11.977Z,1.97
2018-12-12T13:54:41.712Z,1.88
2018-12-12T13:57:11.519Z,1.92
2018-12-12T13:59:41.670Z,1.90
2018-12-12T14:02:11.469Z,1.83
2018-12-12T14:04:41.312Z,1.85
2018-12-12T14:07:11.121Z,1.83
2018-12-12T14:09:40.885Z,1.80
2018-12-12T14:12:17.116Z,1.77
2018-12-12T14:14:42.576Z,1.76
2018-12-12T14:17:12.370Z,1.72
2018-12-12T14:19:42.521Z,1.77
2018-12-12T14:22:12.334Z,1.79
2018-12-12T14:24:42.105Z,1.75
2018-12-12T14:30:47.491Z,1.75
2018-12-12T14:33:17.229Z,1.67
2018-12-12T14:35:47.279Z,1.66
2018-12-12T14:38:17.058Z,1.67
2018-12-12T14:40:46.859Z,1.66
2018-12-12T14:43:16.665Z,1.62
2018-12-12T14:45:46.399Z,1.59
2018-12-12T14:48:16.183Z,1.63
2018-12-12T14:50:46.181Z,1.58
2018-12-12T14:53:16.066Z,1.61
2018-12-12T14:55:45.850Z,1.65
2018-12-12T14:58:15.653Z,1.65
2018-12-12T15:00:45.731Z,1.67
2018-12-12T15:03:15.538Z,1.64
2018-12-12T15:06:20.383Z,1.54
2018-12-12T15:08:50.229Z,1.58
2018-12-12T15:11:20.024Z,1.58
2018-12-12T15:13:49.855Z,1.54
2018-12-12T15:16:19.697Z,1.48
2018-12-12T15:18:49.521Z,1.46
2018-12-12T15:21:25.676Z,1.46
2018-12-12T15:23:51.127Z,1.42
2018-12-12T15:26:20.921Z,1.38
2018-12-12T15:28:51.067Z,1.30
2018-12-12T15:31:21.657Z,1.30
2018-12-12T15:33:51.430Z,1.25
2018-12-12T15:36:21.343Z,1.23
2018-12-12T15:38:51.290Z,1.23
2018-12-12T15:41:21.341Z,1.19
2018-12-12T15:43:51.193Z,1.29
2018-12-12T15:46:21.045Z,1.34
2018-12-12T15:48:50.813Z,1.35
2018-12-12T15:51:20.604Z,1.33
2018-12-12T15:53:51.339Z,1.44
2018-12-12T15:56:21.133Z,1.40
2018-12-12T15:58:50.911Z,1.53
2018-12-12T16:01:20.722Z,1.49
2018-12-12T16:03:50.481Z,1.42
2018-12-12T16:06:20.268Z,1.40
2018-12-12T16:08:50.384Z,1.31
2018-12-12T16:11:20.210Z,1.29
2018-12-12T16:13:49.986Z,1.35
2018-12-12T16:16:19.972Z,1.31
2018-12-12T16:18:49.845Z,1.41
2018-12-12T16:21:19.594Z,1.46
2018-12-12T16:23:49.992Z,1.36
2018-12-12T16:26:19.850Z,1.32
2018-12-12T16:33:19.226Z,1.12
2018-12-12T16:35:49.108Z,1.01
2018-12-12T16:38:18.934Z,0.97
2018-12-12T16:40:48.770Z,0.81
2018-12-12T16:43:18.634Z,0.80
2018-12-12T16:45:48.993Z,0.83
2018-12-12T16:48:18.766Z,0.79
2018-12-12T16:50:48.540Z,0.76
2018-12-12T16:53:18.592Z,0.66
2018-12-12T16:55:48.436Z,0.63
2018-12-12T16:58:18.252Z,0.63
2018-12-12T17:00:48.070Z,0.58
2018-12-12T17:03:18.250Z,0.53
2018-12-12T17:05:48.210Z,0.49
2018-12-12T17:08:18.148Z,0.54
2018-12-12T17:10:47.998Z,0.51
2018-12-12T17:13:17.770Z,0.50
2018-12-12T17:15:47.607Z,0.50
2018-12-12T17:18:17.482Z,0.49
2018-12-12T17:20:47.315Z,0.47
2018-12-12T17:23:17.133Z,0.51
2018-12-12T17:25:46.949Z,0.49
2018-12-12T17:28:16.748Z,0.42
2018-12-12T17:34:22.391Z,0.31
2018-12-12T17:36:52.179Z,0.30
2018-12-12T17:39:21.944Z,0.37
2018-12-12T17:41:51.729Z,0.33
2018-12-12T17:44:21.573Z,0.31
2018-12-12T17:46:51.462Z,0.29
2018-12-12T17:49:21.226Z,0.28
2018-12-12T17:51:51.523Z,0.25
2018-12-12T17:54:21.325Z,0.22
2018-12-12T17:56:51.150Z,0.19
2018-12-12T18:02:57.599Z,0.14
2018-12-12T18:05:27.501Z,0.15
2018-12-12T18:07:57.374Z,0.09
2018-12-12T18:10:27.271Z,0.11
2018-12-12T18:12:57.417Z,0.10
2018-12-12T18:15:27.621Z,0.11
2018-12-12T18:17:57.483Z,-0.11
2018-12-12T18:20:27.383Z,-0.18
2018-12-12T18:22:57.253Z,-0.18
2018-12-12T18:25:27.117Z,-0.22
2018-12-12T18:31:33.313Z,-0.34
2018-12-12T18:34:03.230Z,-0.32
2018-12-12T18:36:33.995Z,-0.29
2018-12-12T18:39:05.401Z,-0.20
2018-12-12T18:41:35.324Z,-0.27
2018-12-12T18:47:40.627Z,-0.26
2018-12-12T18:50:11.068Z,-0.29
2018-12-12T18:52:41.062Z,-0.32
2018-12-12T18:55:11.019Z,-0.32
2018-12-12T18:57:40.961Z,-0.34
2018-12-12T19:00:11.279Z,-0.39
2018-12-12T19:02:41.121Z,-0.39
2018-12-12T19:05:11.607Z,-0.47
2018-12-12T19:07:41.442Z,-0.50
2018-12-12T19:10:12.071Z,-0.52
2018-12-12T19:12:42.120Z,-0.52
2018-12-12T19:15:12.119Z,-0.53
2018-12-12T19:17:42.169Z,-0.51
2018-12-12T19:20:12.191Z,-0.53
2018-12-12T19:23:22.126Z,-0.64
2018-12-12T19:25:53.115Z,-0.73
2018-12-12T19:28:23.142Z,-0.77
2018-12-12T19:30:53.146Z,-0.73
2018-12-12T19:33:23.184Z,-0.69
2018-12-12T19:35:53.639Z,-0.70
2018-12-12T19:38:23.580Z,-0.68
2018-12-12T19:40:53.473Z,-0.67
2018-12-12T19:43:25.174Z,-0.61
2018-12-12T19:45:55.380Z,-0.68
2018-12-12T19:48:25.409Z,-0.75
2018-12-12T19:50:55.282Z,-0.84
2018-12-12T19:53:25.149Z,-0.81
2018-12-12T19:55:54.974Z,-0.81
2018-12-12T19:58:24.788Z,-0.82
2018-12-12T20:00:54.756Z,-0.74
2018-12-12T20:03:24.691Z,-0.72
2018-12-12T20:05:54.623Z,-0.63
2018-12-12T20:08:24.543Z,-0.65
2018-12-12T20:10:54.839Z,-0.64
2018-12-12T20:13:24.763Z,-0.60
2018-12-12T20:15:54.789Z,-0.61
2018-12-12T20:18:24.653Z,-0.53
2018-12-12T20:20:54.658Z,-0.41
2018-12-12T20:23:24.703Z,-0.37
2018-12-12T20:25:54.757Z,-0.29
2018-12-12T20:28:24.886Z,-0.19
2018-12-12T20:30:54.860Z,-0.25
2018-12-12T20:33:24.920Z,-0.31
2018-12-12T20:35:55.085Z,-0.25
2018-12-12T20:38:24.900Z,-0.39
2018-12-12T20:40:54.738Z,-0.37
2018-12-12T20:43:24.616Z,-0.41
2018-12-12T20:45:54.474Z,-0.44
2018-12-12T20:48:25.284Z,-0.37
2018-12-12T20:50:55.134Z,-0.38
2018-12-12T20:53:25.112Z,-0.34
2018-12-12T20:55:54.978Z,-0.32
2018-12-12T20:58:24.900Z,-0.27
2018-12-12T21:00:54.804Z,-0.23
2018-12-12T21:03:24.630Z,-0.19
2018-12-12T21:05:54.850Z,-0.20
2018-12-12T21:08:25.471Z,-0.19
2018-12-12T21:10:55.421Z,-0.17
2018-12-12T21:13:25.333Z,-0.13
2018-12-12T21:15:55.216Z,-0.12
2018-12-12T21:18:25.473Z,-0.11
2018-12-12T21:20:55.564Z,-0.06
2018-12-12T21:23:25.688Z,-0.01
2018-12-12T21:25:56.150Z,-0.02
2018-12-12T21:28:26.416Z,-0.02
2018-12-12T21:30:56.394Z,0.06
2018-12-12T21:33:26.421Z,0.09
2018-12-12T21:36:00.801Z,0.09
2018-12-12T21:38:28.282Z,0.08
2018-12-12T21:40:58.084Z,0.18
2018-12-12T21:43:28.236Z,0.18
2018-12-12T21:45:58.164Z,0.20
2018-12-12T21:48:27.994Z,0.19
2018-12-12T21:50:58.346Z,0.22
2018-12-12T21:53:28.387Z,0.25
2018-12-12T21:55:58.502Z,0.24
2018-12-12T21:58:30.164Z,0.25
2018-12-12T22:00:59.928Z,0.27
2018-12-12T22:03:29.752Z,0.23
2018-12-12T22:05:59.477Z,0.24
2018-12-12T22:08:29.329Z,0.25
2018-12-12T22:10:59.142Z,0.27
2018-12-12T22:13:28.950Z,0.32
2018-12-12T22:15:59.565Z,0.28
2018-12-12T22:18:29.486Z,0.34
2018-12-12T22:20:59.414Z,0.44
2018-12-12T22:23:29.200Z,0.46
2018-12-12T22:25:59.064Z,0.51
2018-12-12T22:28:28.970Z,0.47
2018-12-12T22:30:58.739Z,0.51
2018-12-12T22:33:28.692Z,0.49
2018-12-12T22:35:58.536Z,0.51
2018-12-12T22:38:28.316Z,0.54
2018-12-12T22:40:58.227Z,0.46
2018-12-12T22:43:28.058Z,0.42
2018-12-12T22:45:57.866Z,0.39
2018-12-12T22:48:28.536Z,0.38
2018-12-12T22:50:58.330Z,0.40
2018-12-12T22:53:28.190Z,0.38
2018-12-12T22:55:58.132Z,0.37
2018-12-12T22:58:28.437Z,0.40
2018-12-12T23:01:07.881Z,0.45
2018-12-12T23:03:38.732Z,0.40
2018-12-12T23:06:09.465Z,0.39
2018-12-12T23:08:39.242Z,0.43
2018-12-12T23:11:09.914Z,0.39
2018-12-12T23:13:39.739Z,0.40
2018-12-12T23:16:10.060Z,0.43
2018-12-12T23:18:39.950Z,0.47
2018-12-12T23:21:09.756Z,0.45
2018-12-12T23:23:39.599Z,0.40
2018-12-12T23:26:09.405Z,0.41
2018-12-12T23:28:39.298Z,0.47
2018-12-12T23:31:09.128Z,0.58
2018-12-12T23:33:38.926Z,0.59
2018-12-12T23:36:08.890Z,0.64
2018-12-12T23:38:38.876Z,0.53
2018-12-12T23:41:10.250Z,0.39
2018-12-12T23:43:40.290Z,0.35
2018-12-12T23:46:10.332Z,0.30
2018-12-12T23:55:51.952Z,0.10
2018-12-12T23:58:21.765Z,0.04
